createdAt,value
2022-11-30T00:00:02.587Z,36.12
2022-11-30T00:00:59.345Z,38.02
2022-11-30T00:01:46.001Z,36.58
2022-11-30T00:02:32.938Z,34.91
2022-11-30T00:03:19.886Z,33.95
2022-11-30T00:04:08.047Z,34.79
2022-11-30T00:04:54.712Z,34.46
2022-11-30T00:05:43.818Z,33.53
2022-11-30T00:06:30.607Z,33.68
2022-11-30T00:07:17.606Z,34.51
2022-11-30T00:08:04.292Z,36.66
2022-11-30T00:08:56.414Z,33.14
2022-11-30T00:09:43.146Z,36.15
2022-11-30T00:10:29.708Z,35.31
2022-11-30T00:11:21.046Z,34.94
2022-11-30T00:12:08.047Z,34.35
2022-11-30T00:12:54.809Z,34.86
2022-11-30T00:13:42.307Z,35.21
2022-11-30T00:14:28.823Z,34.26
2022-11-30T00:15:17.376Z,35.31
2022-11-30T00:16:04.567Z,35.84
2022-11-30T00:16:51.216Z,35.16
2022-11-30T00:17:37.881Z,35.64
2022-11-30T00:18:24.890Z,34.81
2022-11-30T00:19:11.571Z,37.91
2022-11-30T00:19:58.474Z,38.06
2022-11-30T00:20:45.675Z,37.53
2022-11-30T00:21:32.305Z,38.67
2022-11-30T00:22:18.758Z,40.59
2022-11-30T00:23:05.398Z,41.28
2022-11-30T00:23:52.362Z,40.11
2022-11-30T00:24:39.241Z,40.69
2022-11-30T00:25:28.836Z,41.71
2022-11-30T00:26:17.971Z,44.13
2022-11-30T00:27:04.537Z,42.68
2022-11-30T00:27:52.794Z,42.83
2022-11-30T00:28:40.653Z,41.45
2022-11-30T00:29:27.177Z,43.62
2022-11-30T00:30:14.709Z,43.24
2022-11-30T00:31:04.876Z,43.75
2022-11-30T00:31:51.574Z,41.71
2022-11-30T00:32:38.922Z,42.50
2022-11-30T00:33:25.414Z,44.91
2022-11-30T00:34:12.215Z,44.09
2022-11-30T00:34:58.785Z,43.18
2022-11-30T00:35:56.121Z,42.42
2022-11-30T00:36:42.780Z,43.83
2022-11-30T00:37:29.353Z,43.78
2022-11-30T00:38:16.191Z,42.34
2022-11-30T00:39:02.697Z,43.48
2022-11-30T00:39:50.772Z,43.15
2022-11-30T00:40:37.358Z,43.50
2022-11-30T00:41:24.011Z,42.44
2022-11-30T00:42:10.996Z,45.56
2022-11-30T00:42:57.825Z,46.02
2022-11-30T00:43:45.195Z,45.03
2022-11-30T00:44:31.886Z,44.20
2022-11-30T00:45:18.447Z,43.22
2022-11-30T00:46:06.086Z,44.33
2022-11-30T00:46:52.583Z,44.90
2022-11-30T00:47:39.234Z,46.94
2022-11-30T00:48:26.728Z,44.70
2022-11-30T00:49:13.340Z,44.66
2022-11-30T00:50:00.203Z,43.33
2022-11-30T00:50:49.351Z,43.19
2022-11-30T00:51:36.006Z,44.37
2022-11-30T00:52:22.803Z,44.45
2022-11-30T00:53:09.498Z,42.40
2022-11-30T00:53:56.245Z,44.74
2022-11-30T00:54:42.815Z,44.59
2022-11-30T00:55:31.627Z,41.80
2022-11-30T00:56:19.487Z,41.53
2022-11-30T00:57:06.235Z,44.30
2022-11-30T00:57:53.532Z,44.19
2022-11-30T00:58:41.167Z,43.55
2022-11-30T00:59:28.067Z,43.00
2022-11-30T01:00:15.405Z,45.25
2022-11-30T01:01:02.592Z,45.89
2022-11-30T01:01:49.325Z,43.48
2022-11-30T01:02:35.980Z,45.31
2022-11-30T01:03:22.549Z,44.66
2022-11-30T01:04:09.468Z,45.11
2022-11-30T01:04:56.105Z,44.38
2022-11-30T01:05:43.486Z,43.17
2022-11-30T01:06:30.310Z,42.81
2022-11-30T01:07:16.974Z,44.57
2022-11-30T01:08:06.583Z,45.08
2022-11-30T01:08:53.123Z,43.87
2022-11-30T01:09:39.581Z,44.15
2022-11-30T01:10:27.513Z,45.18
2022-11-30T01:11:21.599Z,43.45
2022-11-30T01:12:08.322Z,44.80
2022-11-30T01:12:55.329Z,46.47
2022-11-30T01:13:42.209Z,47.78
2022-11-30T01:14:28.863Z,45.58
2022-11-30T01:15:15.533Z,45.70
2022-11-30T01:16:02.347Z,46.61
2022-11-30T01:16:54.739Z,47.50
2022-11-30T01:17:42.833Z,48.13
2022-11-30T01:18:29.518Z,45.20
2022-11-30T01:19:16.247Z,44.40
2022-11-30T01:20:05.205Z,44.05
2022-11-30T01:20:51.794Z,46.25
2022-11-30T01:21:38.863Z,43.24
2022-11-30T01:22:25.439Z,45.05
2022-11-30T01:23:12.053Z,47.93
2022-11-30T01:23:59.090Z,48.66
2022-11-30T01:24:48.952Z,44.62
2022-11-30T01:25:35.803Z,46.24
2022-11-30T01:26:23.388Z,45.36
2022-11-30T01:27:09.866Z,44.58
2022-11-30T01:27:56.516Z,46.11
2022-11-30T01:28:44.281Z,45.26
2022-11-30T01:29:30.887Z,47.35
2022-11-30T01:30:18.958Z,48.05
2022-11-30T01:31:08.342Z,48.22
2022-11-30T01:31:54.969Z,47.89
2022-11-30T01:32:41.637Z,49.45
2022-11-30T01:33:28.271Z,49.72
2022-11-30T01:34:14.935Z,50.96
2022-11-30T01:35:01.785Z,50.22
2022-11-30T01:35:48.282Z,49.58
2022-11-30T01:36:36.309Z,49.31
2022-11-30T01:37:23.303Z,51.50
2022-11-30T01:38:10.251Z,47.55
2022-11-30T01:38:58.245Z,50.49
2022-11-30T01:39:44.983Z,48.93
2022-11-30T01:40:31.510Z,47.16
2022-11-30T01:41:24.254Z,48.50
2022-11-30T01:42:17.789Z,49.10
2022-11-30T01:43:11.633Z,47.74
2022-11-30T01:44:19.975Z,48.60
2022-11-30T01:45:12.598Z,48.12
2022-11-30T01:45:59.352Z,46.78
2022-11-30T01:46:57.459Z,46.65
2022-11-30T01:47:53.428Z,50.60
2022-11-30T01:48:40.204Z,46.67
2022-11-30T01:49:31.550Z,46.76
2022-11-30T01:50:32.009Z,47.80
2022-11-30T01:51:19.351Z,47.05
2022-11-30T01:52:08.170Z,44.81
2022-11-30T01:52:57.073Z,43.91
2022-11-30T01:53:43.675Z,43.47
2022-11-30T01:54:38.274Z,42.56
2022-11-30T01:55:49.242Z,45.04
2022-11-30T01:56:41.436Z,45.82
2022-11-30T01:57:35.756Z,46.42
2022-11-30T01:58:29.970Z,42.82
2022-11-30T01:59:22.057Z,46.79
2022-11-30T02:00:13.861Z,45.12
2022-11-30T02:01:01.969Z,44.55
2022-11-30T02:01:48.774Z,43.71
2022-11-30T02:02:57.460Z,45.37
2022-11-30T02:03:55.728Z,46.85
2022-11-30T02:04:43.339Z,50.85
2022-11-30T02:05:31.478Z,50.89
2022-11-30T02:06:18.973Z,52.94
2022-11-30T02:07:08.515Z,49.64
2022-11-30T02:07:55.967Z,48.00
2022-11-30T02:08:43.309Z,48.28
2022-11-30T02:09:39.526Z,49.12
2022-11-30T02:10:30.401Z,49.19
2022-11-30T02:11:17.541Z,50.72
2022-11-30T02:12:08.931Z,49.98
2022-11-30T02:13:08.334Z,46.73
2022-11-30T02:14:13.386Z,48.29
2022-11-30T02:15:09.329Z,48.99
2022-11-30T02:16:21.816Z,50.75
2022-11-30T02:17:19.857Z,52.28
2022-11-30T02:18:15.122Z,52.50
2022-11-30T02:19:07.764Z,50.95
2022-11-30T02:20:24.723Z,47.69
2022-11-30T02:21:22.215Z,46.13
2022-11-30T02:22:45.969Z,41.98
2022-11-30T02:23:42.981Z,45.68
2022-11-30T02:24:55.341Z,49.12
2022-11-30T02:26:08.691Z,47.82
2022-11-30T02:27:28.893Z,44.28
2022-11-30T02:28:34.030Z,44.01
2022-11-30T02:29:24.567Z,43.68
2022-11-30T02:30:16.445Z,42.48
2022-11-30T02:31:10.519Z,45.82
2022-11-30T02:32:25.987Z,46.05
2022-11-30T02:33:18.841Z,41.04
2022-11-30T02:34:10.937Z,41.31
2022-11-30T02:35:01.853Z,42.21
2022-11-30T02:35:55.320Z,43.44
2022-11-30T02:36:47.386Z,44.90
2022-11-30T02:37:37.405Z,45.96
2022-11-30T02:38:27.348Z,45.82
2022-11-30T02:39:14.294Z,44.00
2022-11-30T02:40:01.032Z,43.75
2022-11-30T02:40:48.130Z,42.36
2022-11-30T02:41:39.689Z,41.17
2022-11-30T02:42:26.483Z,43.52
2022-11-30T02:43:15.178Z,43.74
2022-11-30T02:44:02.225Z,42.72
2022-11-30T02:44:52.576Z,43.08
2022-11-30T02:45:50.363Z,42.15
2022-11-30T02:47:01.768Z,41.66
2022-11-30T02:48:07.865Z,42.23
2022-11-30T02:49:18.936Z,41.83
2022-11-30T02:50:25.568Z,43.00
2022-11-30T02:51:17.940Z,41.16
2022-11-30T02:52:08.212Z,40.43
2022-11-30T02:52:56.112Z,40.68
2022-11-30T02:53:46.862Z,40.08
2022-11-30T02:54:34.711Z,40.53
2022-11-30T02:55:21.483Z,39.58
2022-11-30T02:56:11.515Z,39.12
2022-11-30T02:56:58.433Z,40.99
2022-11-30T02:57:48.097Z,39.23
2022-11-30T02:58:35.071Z,37.88
2022-11-30T02:59:22.333Z,40.26
2022-11-30T03:00:13.940Z,40.64
2022-11-30T03:01:00.605Z,37.07
2022-11-30T03:01:47.319Z,37.49
2022-11-30T03:02:34.182Z,39.26
2022-11-30T03:03:21.069Z,38.18
2022-11-30T03:04:07.603Z,39.49
2022-11-30T03:04:54.156Z,39.88
2022-11-30T03:05:40.722Z,37.08
2022-11-30T03:06:27.310Z,36.39
2022-11-30T03:07:14.132Z,38.33
2022-11-30T03:08:00.956Z,39.83
2022-11-30T03:08:47.818Z,41.67
2022-11-30T03:09:34.281Z,40.56
2022-11-30T03:10:21.248Z,41.60
2022-11-30T03:11:07.985Z,41.71
2022-11-30T03:11:54.747Z,40.88
2022-11-30T03:12:41.300Z,40.02
2022-11-30T03:13:27.981Z,40.20
2022-11-30T03:14:14.629Z,40.03
2022-11-30T03:15:03.202Z,40.20
2022-11-30T03:15:50.201Z,38.89
2022-11-30T03:16:38.046Z,40.81
2022-11-30T03:17:24.809Z,42.50
2022-11-30T03:18:11.871Z,41.90
2022-11-30T03:18:58.970Z,41.33
2022-11-30T03:19:45.420Z,39.58
2022-11-30T03:20:32.617Z,38.50
2022-11-30T03:21:19.374Z,42.14
2022-11-30T03:22:06.467Z,39.26
2022-11-30T03:22:52.886Z,39.75
2022-11-30T03:23:40.814Z,40.87
2022-11-30T03:24:27.555Z,41.22
2022-11-30T03:25:14.152Z,40.95
2022-11-30T03:26:00.700Z,40.12
2022-11-30T03:26:47.188Z,39.44
2022-11-30T03:27:33.845Z,39.12
2022-11-30T03:28:20.342Z,39.53
2022-11-30T03:29:07.151Z,39.28
2022-11-30T03:29:53.758Z,38.74
2022-11-30T03:30:40.300Z,40.56
2022-11-30T03:31:26.962Z,38.72
2022-11-30T03:32:13.686Z,38.24
2022-11-30T03:33:00.349Z,37.85
2022-11-30T03:33:47.205Z,38.27
2022-11-30T03:34:33.796Z,37.67
2022-11-30T03:35:20.366Z,39.09
2022-11-30T03:36:09.674Z,40.03
2022-11-30T03:36:56.338Z,41.14
2022-11-30T03:37:43.041Z,42.70
2022-11-30T03:38:30.444Z,40.75
2022-11-30T03:39:16.995Z,39.34
2022-11-30T03:40:06.839Z,39.40
2022-11-30T03:41:04.332Z,41.03
2022-11-30T03:41:51.764Z,39.30
2022-11-30T03:42:38.512Z,38.21
2022-11-30T03:43:25.220Z,39.86
2022-11-30T03:44:11.951Z,40.47
2022-11-30T03:44:58.744Z,39.60
2022-11-30T03:45:46.539Z,37.71
2022-11-30T03:46:36.079Z,37.47
2022-11-30T03:47:23.286Z,38.13
2022-11-30T03:48:09.783Z,40.05
2022-11-30T03:48:56.429Z,42.86
2022-11-30T03:49:42.910Z,43.41
2022-11-30T03:50:30.101Z,40.01
2022-11-30T03:51:16.635Z,41.30
2022-11-30T03:52:03.217Z,42.70
2022-11-30T03:52:49.998Z,43.50
2022-11-30T03:53:37.209Z,41.43
2022-11-30T03:54:23.880Z,42.86
2022-11-30T03:55:11.075Z,44.42
2022-11-30T03:56:00.803Z,45.51
2022-11-30T03:56:47.547Z,43.62
2022-11-30T03:57:34.796Z,43.57
2022-11-30T03:58:23.171Z,43.82
2022-11-30T03:59:09.860Z,44.47
2022-11-30T03:59:56.363Z,41.65
2022-11-30T04:00:42.876Z,41.19
2022-11-30T04:01:29.404Z,43.09
2022-11-30T04:02:16.054Z,41.85
2022-11-30T04:03:02.896Z,43.84
2022-11-30T04:03:51.612Z,45.75
2022-11-30T04:04:38.045Z,46.76
2022-11-30T04:05:24.578Z,45.25
2022-11-30T04:06:13.022Z,44.18
2022-11-30T04:06:59.786Z,43.29
2022-11-30T04:07:46.365Z,44.71
2022-11-30T04:08:33.786Z,44.89
2022-11-30T04:09:20.349Z,46.19
2022-11-30T04:10:08.759Z,47.28
2022-11-30T04:10:57.513Z,46.90
2022-11-30T04:11:46.738Z,49.38
2022-11-30T04:12:33.440Z,48.73
2022-11-30T04:13:21.212Z,46.96
2022-11-30T04:14:07.831Z,49.45
2022-11-30T04:14:54.333Z,49.04
2022-11-30T04:15:40.975Z,45.76
2022-11-30T04:16:27.849Z,47.39
2022-11-30T04:17:14.551Z,49.50
2022-11-30T04:18:01.902Z,49.74
2022-11-30T04:18:48.589Z,52.29
2022-11-30T04:19:36.183Z,50.49
2022-11-30T04:20:22.719Z,49.76
2022-11-30T04:21:10.378Z,46.18
2022-11-30T04:21:56.853Z,49.13
2022-11-30T04:22:43.481Z,48.34
2022-11-30T04:23:33.246Z,48.81
2022-11-30T04:24:19.997Z,50.82
2022-11-30T04:25:07.146Z,49.81
2022-11-30T04:25:53.619Z,50.13
2022-11-30T04:26:40.318Z,48.68
2022-11-30T04:27:28.774Z,49.87
2022-11-30T04:28:16.771Z,48.04
2022-11-30T04:29:04.782Z,50.29
2022-11-30T04:29:51.532Z,55.35
2022-11-30T04:30:38.067Z,54.18
2022-11-30T04:31:24.692Z,51.32
2022-11-30T04:32:11.412Z,48.23
2022-11-30T04:32:58.456Z,45.51
2022-11-30T04:33:45.040Z,48.53
2022-11-30T04:34:33.850Z,51.53
2022-11-30T04:35:21.125Z,49.70
2022-11-30T04:36:17.738Z,49.61
2022-11-30T04:37:04.247Z,48.49
2022-11-30T04:37:50.705Z,47.84
2022-11-30T04:38:37.675Z,50.98
2022-11-30T04:39:24.166Z,48.55
2022-11-30T04:40:11.308Z,49.60
2022-11-30T04:40:58.009Z,48.98
2022-11-30T04:41:45.401Z,49.93
2022-11-30T04:42:31.888Z,49.03
2022-11-30T04:43:18.543Z,46.80
2022-11-30T04:44:05.005Z,47.40
2022-11-30T04:44:51.671Z,49.24
2022-11-30T04:45:42.782Z,49.98
2022-11-30T04:46:29.609Z,49.94
2022-11-30T04:47:16.428Z,52.08
2022-11-30T04:48:03.971Z,49.33
2022-11-30T04:48:50.599Z,51.60
2022-11-30T04:49:37.364Z,52.47
2022-11-30T04:50:23.979Z,54.61
2022-11-30T04:51:10.623Z,51.80
2022-11-30T04:51:57.292Z,51.52
2022-11-30T04:52:44.040Z,51.80
2022-11-30T04:53:30.706Z,52.51
2022-11-30T04:54:17.352Z,50.58
2022-11-30T04:55:04.379Z,50.71
2022-11-30T04:55:50.796Z,57.62
2022-11-30T04:56:37.287Z,57.98
2022-11-30T04:57:27.721Z,52.91
2022-11-30T04:58:16.716Z,51.75
2022-11-30T04:59:03.435Z,55.90
2022-11-30T04:59:50.059Z,56.83
2022-11-30T05:00:37.464Z,55.09
2022-11-30T05:01:24.216Z,52.20
2022-11-30T05:02:10.888Z,53.94
2022-11-30T05:02:57.527Z,56.19
2022-11-30T05:03:44.097Z,53.68
2022-11-30T05:04:32.858Z,56.18
2022-11-30T05:05:19.473Z,56.56
2022-11-30T05:06:06.327Z,54.22
2022-11-30T05:07:40.518Z,52.47
2022-11-30T05:08:27.426Z,49.35
2022-11-30T05:09:13.922Z,49.09
2022-11-30T05:10:00.611Z,51.12
2022-11-30T05:10:54.946Z,47.87
2022-11-30T05:11:43.626Z,48.32
2022-11-30T05:12:30.259Z,47.95
2022-11-30T05:13:16.856Z,46.84
2022-11-30T05:14:03.530Z,45.92
2022-11-30T05:14:50.152Z,42.84
2022-11-30T05:15:36.676Z,41.35
2022-11-30T05:16:23.254Z,41.52
2022-11-30T05:17:09.835Z,40.43
2022-11-30T05:17:59.302Z,40.26
2022-11-30T05:18:45.976Z,40.59
2022-11-30T05:19:33.616Z,41.14
2022-11-30T05:20:23.038Z,41.56
2022-11-30T05:21:11.084Z,39.41
2022-11-30T05:21:59.227Z,39.18
2022-11-30T05:22:45.822Z,40.00
2022-11-30T05:23:32.590Z,41.62
2022-11-30T05:24:19.090Z,40.01
2022-11-30T05:25:05.973Z,39.60
2022-11-30T05:25:53.943Z,39.63
2022-11-30T05:26:40.484Z,40.66
2022-11-30T05:27:29.775Z,39.06
2022-11-30T05:28:16.710Z,38.17
2022-11-30T05:29:06.056Z,40.81
2022-11-30T05:29:53.064Z,42.21
2022-11-30T05:30:40.908Z,43.85
2022-11-30T05:31:27.665Z,42.26
2022-11-30T05:32:14.311Z,39.93
2022-11-30T05:33:01.312Z,39.80
2022-11-30T05:33:52.749Z,41.55
2022-11-30T05:34:50.038Z,40.56
2022-11-30T05:35:38.572Z,40.62
2022-11-30T05:36:25.632Z,40.94
2022-11-30T05:37:12.367Z,41.10
2022-11-30T05:37:59.081Z,43.20
2022-11-30T05:38:46.231Z,42.71
2022-11-30T05:39:32.920Z,43.96
2022-11-30T05:40:19.790Z,43.50
2022-11-30T05:41:06.381Z,41.83
2022-11-30T05:41:53.031Z,41.03
2022-11-30T05:42:39.888Z,42.54
2022-11-30T05:43:26.642Z,43.04
2022-11-30T05:44:13.287Z,42.39
2022-11-30T05:45:00.980Z,40.58
2022-11-30T05:45:47.784Z,40.17
2022-11-30T05:46:38.342Z,41.63
2022-11-30T05:47:27.353Z,43.58
2022-11-30T05:48:13.957Z,44.17
2022-11-30T05:49:00.622Z,42.29
2022-11-30T05:49:47.292Z,42.66
2022-11-30T05:50:33.837Z,42.21
2022-11-30T05:51:21.503Z,42.13
2022-11-30T05:52:08.003Z,40.86
2022-11-30T05:53:00.715Z,40.99
2022-11-30T05:53:48.046Z,42.81
2022-11-30T05:54:34.911Z,41.78
2022-11-30T05:55:27.119Z,40.81
2022-11-30T05:56:17.030Z,42.88
2022-11-30T05:57:05.360Z,42.68
2022-11-30T05:57:52.781Z,41.82
2022-11-30T05:58:39.861Z,41.40
2022-11-30T05:59:26.396Z,39.58
2022-11-30T06:00:15.745Z,39.41
2022-11-30T06:01:02.888Z,39.45
2022-11-30T06:01:52.040Z,37.14
2022-11-30T06:02:38.841Z,37.37
2022-11-30T06:03:28.270Z,40.11
2022-11-30T06:04:14.973Z,43.09
2022-11-30T06:05:04.403Z,41.51
2022-11-30T06:05:54.839Z,40.83
2022-11-30T06:06:41.547Z,41.32
2022-11-30T06:07:28.077Z,42.22
2022-11-30T06:08:14.622Z,41.17
2022-11-30T06:09:01.527Z,39.75
2022-11-30T06:09:48.211Z,41.09
2022-11-30T06:10:35.513Z,40.76
2022-11-30T06:11:22.259Z,39.90
2022-11-30T06:12:09.006Z,40.51
2022-11-30T06:12:55.517Z,43.18
2022-11-30T06:13:42.816Z,41.45
2022-11-30T06:14:29.377Z,39.22
2022-11-30T06:15:16.036Z,39.40
2022-11-30T06:16:04.949Z,39.91
2022-11-30T06:16:52.030Z,39.21
2022-11-30T06:17:38.747Z,37.92
2022-11-30T06:18:25.396Z,37.01
2022-11-30T06:19:12.053Z,36.72
2022-11-30T06:19:58.723Z,34.67
2022-11-30T06:20:45.355Z,36.73
2022-11-30T06:21:32.173Z,36.24
2022-11-30T06:22:18.654Z,37.90
2022-11-30T06:23:05.616Z,36.97
2022-11-30T06:23:52.985Z,35.46
2022-11-30T06:24:42.003Z,36.37
2022-11-30T06:25:29.018Z,36.00
2022-11-30T06:26:15.491Z,34.02
2022-11-30T06:27:01.999Z,34.65
2022-11-30T06:27:48.680Z,33.86
2022-11-30T06:28:35.628Z,34.56
2022-11-30T06:29:22.381Z,34.05
2022-11-30T06:30:10.224Z,32.09
2022-11-30T06:31:05.628Z,31.62
2022-11-30T06:31:53.323Z,33.23
2022-11-30T06:32:39.914Z,33.44
2022-11-30T06:33:27.347Z,33.05
2022-11-30T06:34:13.963Z,32.89
2022-11-30T06:35:00.602Z,31.84
2022-11-30T06:35:47.454Z,32.05
2022-11-30T06:36:36.316Z,31.05
2022-11-30T06:37:23.275Z,31.48
2022-11-30T06:38:09.778Z,31.76
2022-11-30T06:38:56.339Z,31.78
2022-11-30T06:40:05.236Z,31.80
2022-11-30T06:40:50.137Z,30.19
2022-11-30T06:41:36.827Z,32.15
2022-11-30T06:42:23.487Z,32.44
2022-11-30T06:43:10.274Z,32.53
2022-11-30T06:43:57.281Z,30.60
2022-11-30T06:44:44.067Z,30.31
2022-11-30T06:45:31.680Z,30.19
2022-11-30T06:46:18.373Z,29.94
2022-11-30T06:47:05.113Z,29.83
2022-11-30T06:47:55.748Z,30.53
2022-11-30T06:48:42.491Z,31.25
2022-11-30T06:49:29.156Z,30.72
2022-11-30T06:50:15.851Z,30.03
2022-11-30T06:51:05.621Z,30.09
2022-11-30T06:51:52.308Z,30.72
2022-11-30T06:52:39.060Z,30.92
2022-11-30T06:53:26.002Z,30.22
2022-11-30T06:54:12.566Z,29.16
2022-11-30T06:54:59.507Z,27.55
2022-11-30T06:55:46.207Z,28.02
2022-11-30T06:56:32.745Z,28.33
2022-11-30T06:57:19.256Z,28.42
2022-11-30T06:58:10.369Z,28.60
2022-11-30T06:58:57.470Z,30.13
2022-11-30T06:59:44.289Z,29.75
2022-11-30T07:00:30.954Z,29.61
2022-11-30T07:01:17.590Z,28.69
2022-11-30T07:02:08.863Z,28.34
2022-11-30T07:02:57.571Z,28.32
2022-11-30T07:03:44.185Z,28.44
2022-11-30T07:04:30.679Z,29.24
2022-11-30T07:05:17.146Z,27.88
2022-11-30T07:06:12.682Z,28.69
2022-11-30T07:06:59.398Z,29.51
2022-11-30T07:07:45.905Z,28.12
2022-11-30T07:08:32.398Z,27.62
2022-11-30T07:09:18.844Z,27.32
2022-11-30T07:10:05.783Z,27.38
2022-11-30T07:10:52.990Z,27.68
2022-11-30T07:11:39.749Z,26.39
2022-11-30T07:12:26.810Z,26.82
2022-11-30T07:13:17.105Z,27.06
2022-11-30T07:14:03.750Z,26.95
2022-11-30T07:14:55.440Z,26.98
2022-11-30T07:15:43.297Z,27.21
2022-11-30T07:16:30.078Z,26.72
2022-11-30T07:17:16.661Z,26.70
2022-11-30T07:18:03.128Z,26.17
2022-11-30T07:18:49.758Z,26.11
2022-11-30T07:19:36.175Z,25.40
2022-11-30T07:20:22.804Z,26.52
2022-11-30T07:21:10.574Z,26.26
2022-11-30T07:21:57.351Z,25.84
2022-11-30T07:22:43.948Z,25.87
2022-11-30T07:23:54.284Z,26.19
2022-11-30T07:25:01.148Z,26.04
2022-11-30T07:26:07.585Z,26.46
2022-11-30T07:26:54.356Z,25.34
2022-11-30T07:27:40.771Z,25.69
2022-11-30T07:28:27.181Z,25.25
2022-11-30T07:29:13.698Z,24.73
2022-11-30T07:30:00.428Z,24.58
2022-11-30T07:30:46.979Z,25.77
2022-11-30T07:31:34.886Z,27.12
2022-11-30T07:32:24.468Z,25.97
2022-11-30T07:33:11.247Z,25.66
2022-11-30T07:34:02.879Z,24.92
2022-11-30T07:34:49.876Z,25.54
2022-11-30T07:35:39.269Z,25.40
2022-11-30T07:36:27.636Z,26.80
2022-11-30T07:37:14.322Z,26.08
2022-11-30T07:38:05.374Z,27.11
2022-11-30T07:38:54.838Z,25.06
2022-11-30T07:39:43.927Z,24.99
2022-11-30T07:40:31.286Z,26.31
2022-11-30T07:41:18.039Z,26.11
2022-11-30T07:42:05.274Z,24.46
2022-11-30T07:42:58.740Z,25.80
2022-11-30T07:43:45.303Z,26.64
2022-11-30T07:44:32.845Z,26.16
2022-11-30T07:45:19.359Z,26.94
2022-11-30T07:46:14.050Z,27.72
2022-11-30T07:47:01.118Z,27.16
2022-11-30T07:47:48.009Z,26.41
2022-11-30T07:48:35.322Z,26.80
2022-11-30T07:49:22.083Z,27.36
2022-11-30T07:50:09.299Z,26.28
2022-11-30T07:51:05.687Z,25.17
2022-11-30T07:51:52.377Z,26.90
2022-11-30T07:52:39.372Z,26.61
2022-11-30T07:53:25.973Z,26.21
2022-11-30T07:54:13.766Z,25.57
2022-11-30T07:55:00.286Z,25.79
2022-11-30T07:55:46.812Z,27.30
2022-11-30T07:56:33.393Z,27.25
2022-11-30T07:57:20.143Z,27.87
2022-11-30T07:58:14.208Z,29.12
2022-11-30T07:59:03.737Z,27.05
2022-11-30T07:59:50.468Z,26.50
2022-11-30T08:00:37.964Z,27.19
2022-11-30T08:01:30.129Z,28.92
2022-11-30T08:02:16.966Z,27.31
2022-11-30T08:03:04.299Z,27.35
2022-11-30T08:03:52.352Z,28.98
2022-11-30T08:04:39.178Z,28.15
2022-11-30T08:05:28.245Z,27.44
2022-11-30T08:06:19.784Z,26.71
2022-11-30T08:07:06.458Z,27.63
2022-11-30T08:07:56.898Z,28.51
2022-11-30T08:08:45.408Z,27.26
2022-11-30T08:09:31.983Z,27.80
2022-11-30T08:10:21.040Z,27.37
2022-11-30T08:11:10.799Z,26.53
2022-11-30T08:11:57.459Z,27.78
2022-11-30T08:12:44.165Z,26.77
2022-11-30T08:13:31.410Z,27.07
2022-11-30T08:14:18.267Z,27.52
2022-11-30T08:15:21.770Z,28.22
2022-11-30T08:16:13.789Z,28.33
2022-11-30T08:17:00.692Z,27.79
2022-11-30T08:17:50.297Z,27.32
2022-11-30T08:18:37.413Z,27.18
2022-11-30T08:19:24.267Z,27.01
2022-11-30T08:20:11.876Z,26.10
2022-11-30T08:21:01.608Z,26.41
2022-11-30T08:21:48.178Z,26.94
2022-11-30T08:22:37.033Z,26.21
2022-11-30T08:23:23.709Z,26.38
2022-11-30T08:24:13.577Z,26.24
2022-11-30T08:25:03.410Z,26.58
2022-11-30T08:25:53.092Z,27.96
2022-11-30T08:26:39.922Z,27.43
2022-11-30T08:27:26.866Z,26.45
2022-11-30T08:28:13.386Z,26.17
2022-11-30T08:29:01.505Z,26.32
2022-11-30T08:29:48.037Z,25.87
2022-11-30T08:30:36.999Z,27.70
2022-11-30T08:31:32.395Z,27.07
2022-11-30T08:32:19.088Z,26.84
2022-11-30T08:33:05.576Z,26.69
2022-11-30T08:34:04.198Z,24.93
2022-11-30T08:34:51.089Z,26.80
2022-11-30T08:35:37.803Z,25.81
2022-11-30T08:36:29.394Z,25.91
2022-11-30T08:37:22.412Z,26.63
2022-11-30T08:38:13.011Z,25.35
2022-11-30T08:39:02.562Z,25.43
2022-11-30T08:39:49.465Z,26.03
2022-11-30T08:40:36.357Z,25.93
2022-11-30T08:41:23.865Z,25.61
2022-11-30T08:42:13.248Z,26.20
2022-11-30T08:43:01.041Z,26.88
2022-11-30T08:43:49.607Z,26.38
2022-11-30T08:44:36.362Z,25.99
2022-11-30T08:45:23.247Z,25.15
2022-11-30T08:46:42.561Z,25.29
2022-11-30T08:47:20.002Z,26.45
2022-11-30T08:48:07.208Z,26.85
2022-11-30T08:49:12.557Z,25.20
2022-11-30T08:50:03.910Z,26.39
2022-11-30T08:50:51.076Z,26.43
2022-11-30T08:52:00.851Z,27.06
2022-11-30T08:52:44.443Z,27.00
2022-11-30T08:53:32.365Z,26.25
2022-11-30T08:54:18.978Z,26.51
2022-11-30T08:55:06.362Z,26.73
2022-11-30T08:56:01.360Z,27.32
2022-11-30T08:56:48.052Z,26.56
2022-11-30T08:57:37.770Z,26.67
2022-11-30T08:58:27.544Z,27.40
2022-11-30T08:59:14.268Z,25.93
2022-11-30T09:00:01.051Z,26.83
2022-11-30T09:00:47.566Z,26.80
2022-11-30T09:01:34.060Z,26.67
2022-11-30T09:02:20.641Z,26.07
2022-11-30T09:03:07.184Z,27.44
2022-11-30T09:03:55.775Z,28.63
2022-11-30T09:04:42.413Z,27.66
2022-11-30T09:05:29.055Z,26.37
2022-11-30T09:06:18.689Z,28.16
2022-11-30T09:07:05.526Z,28.98
2022-11-30T09:07:52.361Z,28.65
2022-11-30T09:08:43.624Z,26.54
2022-11-30T09:09:33.294Z,27.04
2022-11-30T09:10:20.038Z,26.96
2022-11-30T09:11:15.973Z,28.48
2022-11-30T09:12:02.774Z,28.47
2022-11-30T09:12:49.554Z,27.36
2022-11-30T09:13:40.261Z,27.57
2022-11-30T09:14:27.038Z,27.34
2022-11-30T09:15:13.726Z,27.45
2022-11-30T09:16:00.294Z,27.99
2022-11-30T09:16:47.118Z,29.85
2022-11-30T09:17:33.755Z,29.39
2022-11-30T09:18:23.003Z,28.72
2022-11-30T09:19:10.422Z,27.54
2022-11-30T09:19:57.111Z,28.36
2022-11-30T09:20:43.681Z,29.23
2022-11-30T09:21:30.410Z,27.92
2022-11-30T09:22:18.199Z,35.05
2022-11-30T09:23:04.845Z,42.30
2022-11-30T09:23:53.233Z,37.10
2022-11-30T09:24:40.219Z,30.13
2022-11-30T09:25:30.120Z,30.62
2022-11-30T09:26:19.807Z,30.04
2022-11-30T09:27:06.397Z,29.50
2022-11-30T09:27:53.089Z,27.32
2022-11-30T09:28:40.071Z,28.66
2022-11-30T09:29:26.734Z,29.25
2022-11-30T09:30:14.023Z,28.35
2022-11-30T09:31:21.797Z,27.78
2022-11-30T09:32:08.615Z,27.86
2022-11-30T09:32:55.170Z,27.44
2022-11-30T09:33:42.392Z,26.70
2022-11-30T09:34:29.168Z,27.41
2022-11-30T09:35:15.764Z,26.78
2022-11-30T09:36:05.829Z,27.86
2022-11-30T09:36:52.672Z,28.05
2022-11-30T09:37:40.257Z,27.62
2022-11-30T09:38:28.472Z,27.81
2022-11-30T09:39:15.150Z,27.12
2022-11-30T09:40:01.843Z,28.05
2022-11-30T09:40:55.771Z,27.73
2022-11-30T09:41:54.055Z,28.25
2022-11-30T09:43:02.539Z,28.75
2022-11-30T09:44:10.587Z,28.42
2022-11-30T09:45:08.120Z,26.95
2022-11-30T09:46:03.505Z,25.65
2022-11-30T09:47:13.296Z,27.88
2022-11-30T09:48:09.008Z,28.13
2022-11-30T09:49:04.306Z,27.16
2022-11-30T09:49:51.318Z,27.84
2022-11-30T09:50:44.146Z,28.65
2022-11-30T09:51:47.839Z,28.20
2022-11-30T09:52:43.809Z,29.47
2022-11-30T09:53:54.948Z,30.85
2022-11-30T09:54:45.538Z,28.61
2022-11-30T09:55:44.445Z,29.32
2022-11-30T09:56:37.712Z,29.73
2022-11-30T09:57:29.040Z,29.54
2022-11-30T09:59:05.040Z,29.67
2022-11-30T09:59:59.328Z,26.92
2022-11-30T10:00:46.020Z,29.29
2022-11-30T10:01:37.698Z,29.19
2022-11-30T10:02:30.472Z,29.40
2022-11-30T10:03:21.950Z,29.63
2022-11-30T10:04:25.951Z,29.73
2022-11-30T10:05:41.071Z,28.09
2022-11-30T10:06:50.627Z,29.38
2022-11-30T10:07:59.106Z,29.36
2022-11-30T10:09:04.104Z,29.12
2022-11-30T10:11:37.668Z,28.25
2022-11-30T10:12:51.553Z,29.68
2022-11-30T10:14:05.139Z,28.62
2022-11-30T10:15:15.146Z,29.95
2022-11-30T10:16:24.263Z,29.45
2022-11-30T10:17:26.009Z,30.11
2022-11-30T10:18:26.251Z,28.57
2022-11-30T10:19:54.911Z,30.16
2022-11-30T10:21:02.796Z,30.41
2022-11-30T10:22:21.728Z,30.60
2022-11-30T10:23:15.058Z,31.38
2022-11-30T10:24:26.775Z,31.79
2022-11-30T10:25:25.415Z,30.61
2022-11-30T10:26:21.553Z,30.24
2022-11-30T10:27:18.344Z,30.15
2022-11-30T10:28:44.976Z,30.68
2022-11-30T10:29:35.709Z,32.13
2022-11-30T10:30:26.148Z,31.78
2022-11-30T10:31:18.181Z,33.46
2022-11-30T10:32:20.626Z,32.34
2022-11-30T10:33:19.369Z,32.92
2022-11-30T10:34:21.806Z,34.36
2022-11-30T10:35:28.684Z,32.75
2022-11-30T10:36:42.139Z,32.86
2022-11-30T10:37:36.830Z,32.35
2022-11-30T10:38:46.949Z,33.15
2022-11-30T10:39:58.417Z,34.00
2022-11-30T10:41:03.880Z,34.23
2022-11-30T10:42:12.614Z,36.99
2022-11-30T10:43:09.938Z,38.47